Alvaton, GA

1:42 AM EDT on August 31, 2015 (GMT -0400)
Georgia Jets Airfield | | Change Station
CLOSE
Current Station
Personal Weather Station
Location: Gay, GA
Elevation: 870 ft
Nearby Weather Stations

Elev 870 ft 33.14 °N, 84.61 °W | Updated 4 seconds ago

Overcast
Overcast
68.7 °F
Feels Like 68.7 °F
N
1.0
Wind Variable Wind from ESE
Gusts 3.0 mph

Today
High -- | Low -- °F
--% Chance of Precip.
Yesterday
High -- | Low -- °F
Precip. -- in
7:12 AM 8:05 PM
Full, 97% visible
Pressure 30.10 in
Visibility 8.0 miles
Clouds Scattered Clouds 800 ft
Overcast 1400 ft
Dew Point 67 °F
Humidity 95%
Rainfall 0.00 in
Snow Depth Not available.
UV 0 out of 12
Pollen 6.60 out of 12
Air Quality Not available.
Flu Activity Not available.
METAR KFFC 310508Z AUTO 08003KT 8SM SCT008 OVC014 21/19 A3010 RMK AO2 T02110194
Pressure 30.10 in
Visibility 8.0 miles
Clouds Scattered Clouds 800 ft
Overcast 1400 ft
Dew Point 67 °F
Humidity 95%
Rainfall 0.00 in
Snow Depth Not available.
UV 0 out of 12
Pollen 6.60 out of 12
Air Quality Not available.
Flu Activity Not available.
METAR KFFC 310508Z AUTO 08003KT 8SM SCT008 OVC014 21/19 A3010 RMK AO2 T02110194

10-Day Weather Forecast

×

Almanac

Astronomy

Aug. 31, 2015 Rise Set
Actual Time
Civil Twilight
Nautical Twilight
Astronomical Twilight
Moon
Length of Visible Light
Length of Day
Tomorrow will be .
, % of the Moon is Illuminated

Today's Extremes

State Highs State Lows

Community

WunderPhotos

Upload Photos

1,851,215 photos uploaded!

WunderBlogs® & News

Nearby

Air Quality

  Air Quality AQ Index Pollutant
Not available.

Snow Depth

Station Depth Elevation

Earthquake Activity

City Distance Mag. Time & Date
Minimum magnitude displayed is 2.5.

Coastal Water Temperatures

Place Temperature

Stations

Nearby Weather Stations

Station Location Temp. Windchill Dew Point Humidity Wind Precip. Elev Updated Type